createdAt,value
2023-04-26T00:00:22.503Z,4.34
2023-04-26T00:02:48.812Z,4.35
2023-04-26T00:05:15.220Z,4.41
2023-04-26T00:07:43.901Z,4.36
2023-04-26T00:10:10.054Z,4.35
2023-04-26T00:12:36.232Z,4.30
2023-04-26T00:15:02.396Z,4.27
2023-04-26T00:17:28.590Z,4.27
2023-04-26T00:19:54.842Z,4.24
2023-04-26T00:22:21.023Z,4.20
2023-04-26T00:24:47.311Z,4.18
2023-04-26T00:27:13.508Z,4.19
2023-04-26T00:29:39.737Z,4.13
2023-04-26T00:32:06.054Z,4.09
2023-04-26T00:34:32.236Z,4.05
2023-04-26T00:36:58.634Z,4.02
2023-04-26T00:39:24.838Z,4.00
2023-04-26T00:41:51.048Z,3.98
2023-04-26T00:44:17.221Z,4.01
2023-04-26T00:46:43.353Z,3.99
2023-04-26T00:49:09.461Z,3.99
2023-04-26T00:51:35.633Z,3.97
2023-04-26T00:54:01.827Z,3.94
2023-04-26T00:56:28.023Z,3.89
2023-04-26T00:58:54.335Z,3.81
2023-04-26T01:01:20.732Z,3.75
2023-04-26T01:03:47.114Z,3.71
2023-04-26T01:06:13.394Z,3.65
2023-04-26T01:08:39.549Z,3.62
2023-04-26T01:11:05.730Z,3.54
2023-04-26T01:13:31.912Z,3.47
2023-04-26T01:15:58.076Z,3.37
2023-04-26T01:18:24.225Z,3.33
2023-04-26T01:20:50.363Z,3.27
2023-04-26T01:23:16.549Z,3.22
2023-04-26T01:25:42.708Z,3.17
2023-04-26T01:28:08.865Z,3.10
2023-04-26T01:30:35.016Z,3.07
2023-04-26T01:33:01.266Z,3.04
2023-04-26T01:35:28.064Z,3.03
2023-04-26T01:37:54.192Z,3.02
2023-04-26T01:40:20.405Z,3.00
2023-04-26T01:42:46.615Z,2.96
2023-04-26T01:45:12.800Z,2.90
2023-04-26T01:47:39.017Z,2.86
2023-04-26T01:50:05.183Z,2.79
2023-04-26T01:52:31.403Z,2.74
2023-04-26T01:54:57.634Z,2.72
2023-04-26T01:57:25.734Z,2.68
2023-04-26T01:59:51.896Z,2.58
2023-04-26T02:02:18.062Z,2.55
2023-04-26T02:04:44.277Z,2.46
2023-04-26T02:07:10.449Z,2.37
2023-04-26T02:09:36.640Z,2.35
2023-04-26T02:12:02.816Z,2.31
2023-04-26T02:14:28.981Z,2.26
2023-04-26T02:16:55.153Z,2.22
2023-04-26T02:19:21.320Z,2.14
2023-04-26T02:21:47.435Z,2.13
2023-04-26T02:24:13.615Z,2.08
2023-04-26T02:26:39.769Z,2.05
2023-04-26T02:29:05.932Z,1.98
2023-04-26T02:31:32.524Z,1.99
2023-04-26T02:33:58.663Z,1.93
2023-04-26T02:36:24.842Z,1.95
2023-04-26T02:38:51.170Z,1.89
2023-04-26T02:41:17.480Z,1.85
2023-04-26T02:43:43.640Z,1.81
2023-04-26T02:46:09.848Z,1.78
2023-04-26T02:48:36.000Z,1.77
2023-04-26T02:51:02.194Z,1.75
2023-04-26T02:53:28.576Z,1.71
2023-04-26T02:55:54.740Z,1.72
2023-04-26T02:58:20.870Z,1.71
2023-04-26T03:00:47.163Z,1.68
2023-04-26T03:03:13.643Z,1.69
2023-04-26T03:05:40.034Z,1.67
2023-04-26T03:08:06.179Z,1.64
2023-04-26T03:10:32.350Z,1.58
2023-04-26T03:12:58.579Z,1.60
2023-04-26T03:15:24.774Z,1.55
2023-04-26T03:17:50.927Z,1.49
2023-04-26T03:20:17.129Z,1.43
2023-04-26T03:22:43.260Z,1.38
2023-04-26T03:25:09.451Z,1.35
2023-04-26T03:27:35.636Z,1.29
2023-04-26T03:30:04.508Z,1.27
2023-04-26T03:32:30.694Z,1.29
2023-04-26T03:34:56.875Z,1.26
2023-04-26T03:37:23.039Z,1.29
2023-04-26T03:39:49.239Z,1.30
2023-04-26T03:42:15.394Z,1.29
2023-04-26T03:44:41.521Z,1.26
2023-04-26T03:47:07.720Z,1.27
2023-04-26T03:49:33.937Z,1.27
2023-04-26T03:52:00.136Z,1.29
2023-04-26T03:54:26.336Z,1.28
2023-04-26T03:56:52.490Z,1.22
2023-04-26T03:59:18.704Z,1.17
2023-04-26T04:01:44.820Z,1.16
2023-04-26T04:04:11.255Z,1.10
2023-04-26T04:06:37.642Z,1.10
2023-04-26T04:09:03.821Z,1.04
2023-04-26T04:11:29.972Z,1.02
2023-04-26T04:13:56.110Z,1.03
2023-04-26T04:16:22.406Z,1.03
2023-04-26T04:18:48.966Z,1.02
2023-04-26T04:21:15.152Z,1.09
2023-04-26T04:23:41.317Z,1.15
2023-04-26T04:26:07.523Z,1.16
2023-04-26T04:28:33.726Z,1.25
2023-04-26T04:31:00.004Z,1.23
2023-04-26T04:33:26.166Z,1.24
2023-04-26T04:35:52.348Z,1.24
2023-04-26T04:38:18.546Z,1.19
2023-04-26T04:40:44.676Z,1.24
2023-04-26T04:43:11.163Z,1.26
2023-04-26T04:45:37.340Z,1.30
2023-04-26T04:48:03.569Z,1.38
2023-04-26T04:50:29.811Z,1.40
2023-04-26T04:52:55.964Z,1.42
2023-04-26T04:55:22.103Z,1.46
2023-04-26T04:57:48.302Z,1.53
2023-04-26T05:00:14.470Z,1.56
2023-04-26T05:02:40.763Z,1.62
2023-04-26T05:05:07.085Z,1.70
2023-04-26T05:07:33.272Z,1.80
2023-04-26T05:09:59.392Z,1.96
2023-04-26T05:12:25.674Z,2.09
2023-04-26T05:14:51.872Z,2.19
2023-04-26T05:17:18.061Z,2.31
2023-04-26T05:19:44.179Z,2.40
2023-04-26T05:22:10.372Z,2.51
2023-04-26T05:24:36.546Z,2.57
2023-04-26T05:27:02.721Z,2.68
2023-04-26T05:29:28.926Z,2.81
2023-04-26T05:31:55.135Z,2.97
2023-04-26T05:34:21.463Z,3.08
2023-04-26T05:36:47.608Z,3.24
2023-04-26T05:39:15.700Z,3.44
2023-04-26T05:41:41.872Z,3.75
2023-04-26T05:44:08.073Z,3.99
2023-04-26T05:46:34.202Z,4.23
2023-04-26T05:49:00.354Z,4.56
2023-04-26T05:51:29.572Z,5.07
2023-04-26T05:53:55.700Z,5.48
2023-04-26T05:56:22.027Z,5.81
2023-04-26T05:58:48.162Z,6.19
2023-04-26T06:01:14.350Z,6.33
2023-04-26T06:03:40.704Z,6.73
2023-04-26T06:06:06.984Z,6.97
2023-04-26T06:08:33.157Z,6.96
2023-04-26T06:10:59.317Z,7.07
2023-04-26T06:13:28.529Z,7.41
2023-04-26T06:15:54.711Z,7.56
2023-04-26T06:18:20.846Z,7.82
2023-04-26T06:20:48.217Z,8.12
2023-04-26T06:23:14.437Z,8.41
2023-04-26T06:25:40.569Z,8.71
2023-04-26T06:28:06.714Z,8.78
2023-04-26T06:30:33.942Z,9.00
2023-04-26T06:33:00.265Z,9.11
2023-04-26T06:35:26.453Z,9.11
2023-04-26T06:37:52.626Z,9.39
2023-04-26T06:40:18.838Z,9.47
2023-04-26T06:42:45.010Z,9.45
2023-04-26T06:45:11.197Z,9.56
2023-04-26T06:47:37.406Z,9.95
2023-04-26T06:50:03.598Z,10.16
2023-04-26T06:52:29.810Z,10.49
2023-04-26T06:54:57.620Z,10.55
2023-04-26T06:57:24.101Z,10.43
2023-04-26T06:59:50.314Z,10.38
2023-04-26T07:05:00.560Z,10.61
2023-04-26T07:07:26.923Z,11.04
2023-04-26T07:09:53.150Z,11.11
2023-04-26T07:12:19.338Z,11.44
2023-04-26T07:14:45.595Z,10.92
2023-04-26T07:17:11.771Z,10.98
2023-04-26T07:19:37.942Z,11.01
2023-04-26T07:22:04.125Z,11.25
2023-04-26T07:24:30.255Z,11.43
2023-04-26T07:26:56.819Z,11.74
2023-04-26T07:29:23.178Z,12.19
2023-04-26T07:31:49.321Z,12.34
2023-04-26T07:34:15.482Z,12.29
2023-04-26T07:36:43.780Z,12.73
2023-04-26T07:39:09.993Z,13.03
2023-04-26T07:41:36.164Z,12.88
2023-04-26T07:44:02.314Z,13.00
2023-04-26T07:46:28.526Z,12.92
2023-04-26T07:48:54.696Z,13.48
2023-04-26T07:51:20.834Z,13.44
2023-04-26T07:53:47.067Z,14.20
2023-04-26T07:56:13.237Z,15.15
2023-04-26T07:58:39.471Z,15.47
2023-04-26T08:01:05.735Z,15.40
2023-04-26T08:03:32.102Z,15.72
2023-04-26T08:05:58.501Z,16.07
2023-04-26T08:08:24.927Z,15.70
2023-04-26T08:10:51.082Z,17.00
2023-04-26T08:13:17.287Z,17.02
2023-04-26T08:18:34.133Z,17.38
2023-04-26T08:21:00.284Z,17.57
2023-04-26T08:23:27.514Z,16.48
2023-04-26T08:25:53.655Z,17.51
2023-04-26T08:28:19.815Z,18.77
2023-04-26T08:30:46.047Z,17.87
2023-04-26T08:33:12.256Z,17.84
2023-04-26T08:38:29.170Z,18.57
2023-04-26T08:40:55.375Z,19.59
2023-04-26T08:43:21.614Z,19.90
2023-04-26T08:45:47.873Z,19.33
2023-04-26T08:48:14.122Z,18.38
2023-04-26T08:50:40.356Z,18.26
2023-04-26T08:53:06.607Z,18.19
2023-04-26T08:55:32.835Z,17.68
2023-04-26T08:57:59.003Z,18.73
2023-04-26T09:00:25.159Z,18.67
2023-04-26T09:05:42.240Z,17.73
2023-04-26T09:08:08.423Z,17.40
2023-04-26T09:10:34.595Z,17.81
2023-04-26T09:13:00.744Z,16.80
2023-04-26T09:15:27.007Z,16.58
2023-04-26T09:17:53.214Z,15.96
2023-04-26T09:20:19.404Z,16.17
2023-04-26T09:22:45.572Z,15.10
2023-04-26T09:25:11.720Z,14.53
2023-04-26T09:27:37.898Z,13.93
2023-04-26T09:30:04.073Z,13.94
2023-04-26T09:32:31.384Z,13.72
2023-04-26T09:37:58.457Z,14.56
2023-04-26T09:40:26.608Z,14.93
2023-04-26T09:42:52.953Z,15.09
2023-04-26T09:45:19.109Z,15.79
2023-04-26T09:50:35.330Z,17.07
2023-04-26T09:53:01.530Z,17.75
2023-04-26T09:55:34.645Z,17.70
2023-04-26T09:58:02.012Z,17.23
2023-04-26T10:00:28.226Z,16.32
2023-04-26T10:02:54.687Z,15.62
2023-04-26T10:05:20.953Z,14.73
2023-04-26T10:07:47.101Z,14.54
2023-04-26T10:10:13.462Z,14.77
2023-04-26T10:12:39.676Z,14.65
2023-04-26T10:15:05.869Z,14.87
2023-04-26T10:17:32.325Z,15.78
2023-04-26T10:19:58.573Z,16.93
2023-04-26T10:22:24.794Z,16.84
2023-04-26T10:24:51.088Z,16.55
2023-04-26T10:27:19.889Z,16.63
2023-04-26T10:29:46.166Z,16.15
2023-04-26T10:32:12.463Z,15.82
2023-04-26T10:34:38.751Z,15.42
2023-04-26T10:37:04.922Z,15.66
2023-04-26T10:39:31.204Z,15.96
2023-04-26T10:41:57.494Z,16.16
2023-04-26T10:44:23.673Z,15.63
2023-04-26T10:46:49.881Z,15.69
2023-04-26T10:49:16.026Z,15.54
2023-04-26T10:51:43.388Z,15.59
2023-04-26T10:54:09.593Z,15.51
2023-04-26T10:56:35.755Z,15.34
2023-04-26T10:59:02.775Z,15.51
2023-04-26T11:01:29.140Z,15.50
2023-04-26T11:03:55.830Z,15.61
2023-04-26T11:06:22.449Z,16.30
2023-04-26T11:08:48.933Z,17.23
2023-04-26T11:11:15.152Z,17.76
2023-04-26T11:13:41.305Z,18.10
2023-04-26T11:16:07.497Z,17.96
2023-04-26T11:18:33.709Z,18.79
2023-04-26T11:20:59.901Z,18.32
2023-04-26T11:23:26.241Z,18.81
2023-04-26T11:25:55.492Z,18.23
2023-04-26T11:28:21.903Z,18.08
2023-04-26T11:30:48.268Z,18.21
2023-04-26T11:33:14.497Z,17.74
2023-04-26T11:35:40.728Z,17.70
2023-04-26T11:38:06.951Z,17.47
2023-04-26T11:40:33.184Z,17.23
2023-04-26T11:42:59.414Z,16.43
2023-04-26T11:45:25.625Z,16.55
2023-04-26T11:47:51.848Z,17.84
2023-04-26T11:50:18.115Z,18.06
2023-04-26T11:52:44.300Z,18.33
2023-04-26T11:55:10.491Z,18.16
2023-04-26T11:57:36.641Z,17.99
2023-04-26T12:00:02.864Z,17.93
2023-04-26T12:02:29.175Z,18.89
2023-04-26T12:04:55.665Z,19.10
2023-04-26T12:07:21.988Z,18.95
2023-04-26T12:09:48.155Z,19.43
2023-04-26T12:12:14.300Z,19.75
2023-04-26T12:14:40.560Z,19.44
2023-04-26T12:17:06.778Z,18.24
2023-04-26T12:19:32.979Z,18.83
2023-04-26T12:21:59.153Z,19.08
2023-04-26T12:24:25.342Z,19.58
2023-04-26T12:26:51.459Z,19.55
2023-04-26T12:29:17.605Z,19.32
2023-04-26T12:31:43.828Z,19.53
2023-04-26T12:34:10.026Z,19.37
2023-04-26T12:36:36.228Z,20.62
2023-04-26T12:39:02.546Z,21.04
2023-04-26T12:41:28.723Z,20.26
2023-04-26T12:43:54.942Z,20.09
2023-04-26T12:46:21.147Z,19.80
2023-04-26T12:48:47.359Z,18.88
2023-04-26T12:51:13.596Z,18.71
2023-04-26T12:53:39.742Z,18.71
2023-04-26T12:56:05.913Z,19.14
2023-04-26T12:58:32.131Z,18.44
2023-04-26T13:00:58.314Z,18.38
2023-04-26T13:03:24.690Z,18.19
2023-04-26T13:05:50.970Z,18.03
2023-04-26T13:08:17.325Z,17.93
2023-04-26T13:10:43.537Z,17.54
2023-04-26T13:13:09.717Z,18.48
2023-04-26T13:15:35.963Z,18.63
2023-04-26T13:18:02.203Z,18.47
2023-04-26T13:20:29.691Z,18.96
2023-04-26T13:22:57.171Z,18.65
2023-04-26T13:25:23.420Z,18.26
2023-04-26T13:27:49.617Z,19.65
2023-04-26T13:30:16.852Z,19.91
2023-04-26T13:32:43.033Z,20.59
2023-04-26T13:35:09.208Z,20.94
2023-04-26T13:37:35.450Z,21.19
2023-04-26T13:40:01.719Z,20.49
2023-04-26T13:42:31.082Z,20.74
2023-04-26T13:44:57.304Z,20.30
2023-04-26T13:47:23.628Z,20.54
2023-04-26T13:49:49.873Z,20.21
2023-04-26T13:52:16.077Z,19.99
2023-04-26T13:54:42.310Z,19.80
2023-04-26T13:57:08.480Z,20.17
2023-04-26T13:59:34.685Z,20.59
2023-04-26T14:02:00.925Z,20.80
2023-04-26T14:04:27.481Z,20.49
2023-04-26T14:06:53.875Z,20.00
2023-04-26T14:09:20.067Z,20.08
2023-04-26T14:11:51.603Z,20.05
2023-04-26T14:14:23.815Z,20.10
2023-04-26T14:16:50.038Z,20.33
2023-04-26T14:19:16.224Z,21.01
2023-04-26T14:21:42.377Z,21.18
2023-04-26T14:24:08.576Z,21.27
2023-04-26T14:26:35.052Z,21.20
2023-04-26T14:29:01.198Z,21.39
2023-04-26T14:31:27.390Z,21.49
2023-04-26T14:33:53.561Z,21.10
2023-04-26T14:36:19.743Z,20.68
2023-04-26T14:38:45.932Z,20.83
2023-04-26T14:41:12.121Z,20.62
2023-04-26T14:43:38.319Z,21.39
2023-04-26T14:46:04.547Z,20.71
2023-04-26T14:48:30.700Z,20.78
2023-04-26T14:50:56.917Z,20.48
2023-04-26T14:53:23.065Z,20.24
2023-04-26T14:55:49.236Z,20.04
2023-04-26T14:58:15.659Z,19.87
2023-04-26T15:00:42.111Z,19.71
2023-04-26T15:03:08.481Z,20.33
2023-04-26T15:05:34.720Z,21.10
2023-04-26T15:08:00.978Z,21.52
2023-04-26T15:10:27.119Z,21.77
2023-04-26T15:12:53.339Z,22.13
2023-04-26T15:15:19.531Z,22.90
2023-04-26T15:17:45.750Z,22.88
2023-04-26T15:20:11.980Z,23.56
2023-04-26T15:22:38.860Z,23.90
2023-04-26T15:25:05.351Z,22.43
2023-04-26T15:27:31.584Z,21.42
2023-04-26T15:29:57.778Z,20.60
2023-04-26T15:32:23.943Z,19.69
2023-04-26T15:34:50.128Z,19.42
2023-04-26T15:37:16.306Z,18.08
2023-04-26T15:39:42.483Z,17.92
2023-04-26T15:42:08.659Z,17.38
2023-04-26T15:44:34.820Z,17.14
2023-04-26T15:47:01.011Z,16.68
2023-04-26T15:49:27.171Z,16.25
2023-04-26T15:51:53.308Z,16.17
2023-04-26T15:54:19.509Z,16.28
2023-04-26T15:56:45.662Z,16.03
2023-04-26T15:59:11.881Z,16.08
2023-04-26T16:01:38.139Z,16.20
2023-04-26T16:04:04.606Z,16.51
2023-04-26T16:06:30.865Z,16.33
2023-04-26T16:08:57.081Z,16.49
2023-04-26T16:11:23.265Z,16.49
2023-04-26T16:13:49.454Z,16.34
2023-04-26T16:16:15.672Z,17.28
2023-04-26T16:18:41.936Z,17.73
2023-04-26T16:21:08.078Z,17.59
2023-04-26T16:23:34.212Z,18.21
2023-04-26T16:26:00.408Z,18.42
2023-04-26T16:28:26.598Z,18.04
2023-04-26T16:30:52.741Z,17.81
2023-04-26T16:33:21.382Z,17.32
2023-04-26T16:35:48.989Z,16.52
2023-04-26T16:38:15.141Z,16.05
2023-04-26T16:40:41.261Z,15.87
2023-04-26T16:43:07.458Z,15.80
2023-04-26T16:45:33.628Z,15.56
2023-04-26T16:47:59.868Z,15.43
2023-04-26T16:50:26.050Z,15.53
2023-04-26T16:52:54.710Z,15.61
2023-04-26T16:55:22.697Z,15.55
2023-04-26T16:57:49.143Z,15.32
2023-04-26T17:00:15.313Z,15.17
2023-04-26T17:02:43.045Z,15.11
2023-04-26T17:05:09.459Z,15.12
2023-04-26T17:07:35.770Z,15.03
2023-04-26T17:10:02.058Z,14.66
2023-04-26T17:12:28.347Z,14.62
2023-04-26T17:14:56.753Z,14.54
2023-04-26T17:17:22.915Z,14.57
2023-04-26T17:19:49.058Z,14.48
2023-04-26T17:22:15.349Z,14.37
2023-04-26T17:24:41.519Z,14.27
2023-04-26T17:27:07.660Z,14.04
2023-04-26T17:29:33.914Z,14.02
2023-04-26T17:32:00.279Z,13.86
2023-04-26T17:34:26.645Z,13.81
2023-04-26T17:36:52.885Z,13.75
2023-04-26T17:39:19.110Z,13.81
2023-04-26T17:41:45.309Z,13.77
2023-04-26T17:44:11.474Z,13.68
2023-04-26T17:46:37.711Z,13.55
2023-04-26T17:49:03.916Z,13.55
2023-04-26T17:51:30.173Z,13.40
2023-04-26T17:54:00.505Z,13.34
2023-04-26T17:56:26.830Z,13.33
2023-04-26T17:58:53.048Z,13.39
2023-04-26T18:01:19.335Z,13.29
2023-04-26T18:03:45.704Z,13.26
2023-04-26T18:06:12.091Z,13.28
2023-04-26T18:08:38.310Z,13.22
2023-04-26T18:11:04.671Z,13.20
2023-04-26T18:13:30.952Z,13.10
2023-04-26T18:15:57.177Z,13.05
2023-04-26T18:18:24.640Z,13.03
2023-04-26T18:20:52.963Z,12.94
2023-04-26T18:23:19.481Z,12.93
2023-04-26T18:25:45.909Z,12.89
2023-04-26T18:28:12.144Z,12.82
2023-04-26T18:30:38.383Z,12.75
2023-04-26T18:33:04.628Z,12.66
2023-04-26T18:35:30.876Z,12.60
2023-04-26T18:40:37.200Z,12.54
2023-04-26T18:43:03.393Z,12.43
2023-04-26T18:48:11.926Z,12.20
2023-04-26T18:50:38.199Z,12.13
2023-04-26T18:53:04.501Z,12.10
2023-04-26T18:55:30.697Z,12.04
2023-04-26T18:57:56.944Z,11.95
2023-04-26T19:00:23.123Z,11.94
2023-04-26T19:02:49.589Z,11.91
2023-04-26T19:05:16.005Z,11.87
2023-04-26T19:07:42.316Z,11.83
2023-04-26T19:10:08.528Z,11.77
2023-04-26T19:12:34.740Z,11.74
2023-04-26T19:15:00.921Z,11.71
2023-04-26T19:17:27.221Z,11.68
2023-04-26T19:19:56.977Z,11.66
2023-04-26T19:22:23.157Z,11.65
2023-04-26T19:24:55.547Z,11.65
2023-04-26T19:27:21.778Z,11.66
2023-04-26T19:29:49.751Z,11.64
2023-04-26T19:32:18.295Z,11.57
2023-04-26T19:34:46.617Z,11.59
2023-04-26T19:37:12.828Z,11.54
2023-04-26T19:39:39.038Z,11.53
2023-04-26T19:42:05.223Z,11.51
2023-04-26T19:44:31.433Z,11.49
2023-04-26T19:46:57.954Z,11.50
2023-04-26T19:49:24.268Z,11.44
2023-04-26T19:51:50.489Z,11.41
2023-04-26T19:54:19.717Z,11.37
2023-04-26T19:56:45.910Z,11.33
2023-04-26T19:59:12.328Z,11.24
2023-04-26T20:01:38.568Z,11.21
2023-04-26T20:04:04.913Z,11.14
2023-04-26T20:06:31.264Z,11.11
2023-04-26T20:08:57.453Z,11.01
2023-04-26T20:11:23.608Z,10.92
2023-04-26T20:13:49.852Z,10.80
2023-04-26T20:16:16.106Z,10.70
2023-04-26T20:18:42.479Z,10.56
2023-04-26T20:21:08.747Z,10.53
2023-04-26T20:23:35.026Z,10.46
2023-04-26T20:26:01.172Z,10.41
2023-04-26T20:28:27.338Z,10.39
2023-04-26T20:30:53.510Z,10.35
2023-04-26T20:33:19.728Z,10.28
2023-04-26T20:35:45.959Z,10.16
2023-04-26T20:38:12.161Z,10.13
2023-04-26T20:40:38.334Z,10.03
2023-04-26T20:43:04.484Z,9.97
2023-04-26T20:45:30.652Z,9.86
2023-04-26T20:47:56.996Z,9.64
2023-04-26T20:50:23.210Z,9.44
2023-04-26T20:52:49.375Z,9.29
2023-04-26T20:55:15.617Z,9.17
2023-04-26T20:57:41.858Z,9.09
2023-04-26T21:00:08.095Z,9.01
2023-04-26T21:02:34.385Z,8.96
2023-04-26T21:05:00.712Z,8.90
2023-04-26T21:07:26.837Z,8.79
2023-04-26T21:09:53.968Z,8.81
2023-04-26T21:12:20.136Z,8.81
2023-04-26T21:14:46.351Z,8.76
2023-04-26T21:17:12.554Z,8.71
2023-04-26T21:19:38.749Z,8.60
2023-04-26T21:22:04.916Z,8.54
2023-04-26T21:24:31.042Z,8.46
2023-04-26T21:27:00.061Z,8.39
2023-04-26T21:29:26.261Z,8.28
2023-04-26T21:31:55.494Z,8.10
2023-04-26T21:34:21.718Z,7.98
2023-04-26T21:36:47.930Z,7.83
2023-04-26T21:39:16.923Z,7.65
2023-04-26T21:41:43.144Z,7.51
2023-04-26T21:44:09.354Z,7.37
2023-04-26T21:46:35.631Z,7.28
2023-04-26T21:49:03.391Z,7.19
2023-04-26T21:51:29.513Z,7.13
2023-04-26T21:53:55.723Z,7.08
2023-04-26T21:56:24.714Z,6.98
2023-04-26T21:58:50.869Z,6.90
2023-04-26T22:01:17.076Z,6.87
2023-04-26T22:03:44.575Z,6.80
2023-04-26T22:06:10.836Z,6.81
2023-04-26T22:08:39.485Z,6.76
2023-04-26T22:11:05.642Z,6.70
2023-04-26T22:13:31.782Z,6.63
2023-04-26T22:15:57.984Z,6.55
2023-04-26T22:18:24.187Z,6.46
2023-04-26T22:20:50.364Z,6.40
2023-04-26T22:23:16.520Z,6.40
2023-04-26T22:25:42.656Z,6.31
2023-04-26T22:28:08.818Z,6.30
2023-04-26T22:30:35.011Z,6.24
2023-04-26T22:33:01.208Z,6.23
2023-04-26T22:35:27.386Z,6.15
2023-04-26T22:37:53.564Z,6.08
2023-04-26T22:40:19.734Z,6.04
2023-04-26T22:42:45.924Z,5.96
2023-04-26T22:45:12.095Z,5.93
2023-04-26T22:47:40.081Z,5.88
2023-04-26T22:50:06.282Z,5.85
2023-04-26T22:52:32.632Z,5.83
2023-04-26T22:54:58.898Z,5.83
2023-04-26T22:57:25.977Z,5.74
2023-04-26T22:59:52.139Z,5.69
2023-04-26T23:02:18.310Z,5.65
2023-04-26T23:04:44.547Z,5.58
2023-04-26T23:07:13.534Z,5.50
2023-04-26T23:09:39.757Z,5.42
2023-04-26T23:12:06.052Z,5.28
2023-04-26T23:14:32.173Z,5.30
2023-04-26T23:16:58.379Z,5.23
2023-04-26T23:19:24.612Z,5.22
2023-04-26T23:21:50.773Z,5.16
2023-04-26T23:24:16.937Z,5.09
2023-04-26T23:26:43.092Z,5.08
2023-04-26T23:29:09.266Z,4.99
2023-04-26T23:31:35.525Z,4.94
2023-04-26T23:34:01.792Z,4.94
2023-04-26T23:36:28.017Z,4.89
2023-04-26T23:38:54.195Z,4.85
2023-04-26T23:41:20.375Z,4.84
2023-04-26T23:43:46.560Z,4.81
2023-04-26T23:46:12.795Z,4.74
2023-04-26T23:48:39.059Z,4.71
2023-04-26T23:51:05.262Z,4.71
2023-04-26T23:53:31.456Z,4.64
2023-04-26T23:55:57.594Z,4.62
2023-04-26T23:58:23.789Z,4.62
